Lucile, Idaho
Current Conditions -  °F | °C
As of 1:35 PM on Friday 28 Nov 2014 (Local Time) from KGIC Reporting Station
Clear Clear  
Wind Chill: 51°   Ceiling: Unl
Heat Index: 51°   Visibility: 10mi
Dew Point: 32°   Wind: 29mph
Humidity: 48%   Direction: 210°SSW
Pressure: 29.57"   Gusts: 44mph
Location:  45.53°N, 116.31°W
Report Text: KGIC 282035Z AUTO 21025G38KT 10SM CLR 11/00 A2957 RMK AO1 T01061001
Loading
Personal Weather Stations






























Interactive Weather Map New forecast layout! Learn more

10-Day Weather Forecast

Advertisements
Track Severe Weather on mobile